Time;durP1;ratioP1;P1;durP2;ratioP2;P2;SDS_P1;SDS_P2;PMS_P1;PMS_P2;Temp;Humidity;BMP_temperature;BMP_pressure;BME280_temperature;BME280_humidity;BME280_pressure;Samples;Min_cycle;Max_cycle;Signal;HPM_P1;HPM_P2
2022/12/22 03:27:23;;;;;;;32.13;14.73;;;;;;;0.27;73.82;100676.41;123402;1099;104294;-80
2022/12/22 03:29:55;;;;;;;30.47;13.60;;;;;;;0.28;74.14;100668.78;123444;1099;104329;-81
2022/12/22 03:32:26;;;;;;;32.53;14.43;;;;;;;0.30;74.62;100680.12;123462;1098;104415;-78
2022/12/22 03:34:57;;;;;;;32.50;14.50;;;;;;;0.32;74.57;100673.38;123396;1099;104255;-79
2022/12/22 03:37:28;;;;;;;32.53;14.50;;;;;;;0.37;74.83;100685.77;123385;1099;104245;-79
2022/12/22 03:40:00;;;;;;;30.07;13.43;;;;;;;0.38;74.09;100672.09;123594;1099;104239;-77
2022/12/22 03:48:09;;;;;;;33.97;14.80;;;;;;;0.42;74.57;100664.70;123421;1099;104290;-78
2022/12/22 03:50:40;;;;;;;31.40;13.90;;;;;;;0.43;74.74;100663.91;123536;1098;104277;-79
2022/12/22 03:53:11;;;;;;;31.53;14.83;;;;;;;0.45;75.01;100664.03;123448;1099;104278;-78
2022/12/22 03:55:43;;;;;;;31.80;14.70;;;;;;;0.44;74.53;100652.81;123594;1099;104226;-79
2022/12/22 03:58:14;;;;;;;30.77;14.03;;;;;;;0.46;74.70;100655.52;123463;1099;104338;-78
2022/12/22 04:00:45;;;;;;;31.60;14.03;;;;;;;0.45;74.95;100664.95;123396;1098;104699;-79
2022/12/22 04:03:16;;;;;;;32.17;14.20;;;;;;;0.47;75.13;100667.66;123388;1099;104358;-78
2022/12/22 04:05:48;;;;;;;31.57;14.63;;;;;;;0.49;75.03;100671.25;123406;1099;104275;-78
2022/12/22 04:08:19;;;;;;;37.77;16.03;;;;;;;0.49;74.79;100672.13;123550;1099;104287;-79
2022/12/22 04:13:39;;;;;;;32.83;15.27;;;;;;;0.48;75.06;100679.77;123203;1099;104805;-78
2022/12/22 04:16:10;;;;;;;33.43;14.60;;;;;;;0.46;74.76;100671.00;123580;1099;104245;-79
2022/12/22 04:18:42;;;;;;;34.13;13.87;;;;;;;0.46;75.07;100671.00;123443;1099;104316;-78
2022/12/22 04:21:13;;;;;;;33.27;15.57;;;;;;;0.46;74.68;100677.05;123411;1099;104367;-79
2022/12/22 04:23:44;;;;;;;32.40;14.17;;;;;;;0.47;74.98;100675.40;123432;1099;104402;-79
2022/12/22 04:26:15;;;;;;;30.50;14.63;;;;;;;0.48;75.32;100674.59;123424;1099;104390;-79
2022/12/22 04:28:47;;;;;;;32.30;14.40;;;;;;;0.46;74.86;100679.64;123439;1099;104341;-78
2022/12/22 04:31:18;;;;;;;29.83;13.67;;;;;;;0.44;75.49;100681.21;123572;1099;104274;-78
2022/12/22 04:33:50;;;;;;;29.80;13.33;;;;;;;0.40;75.65;100679.16;123614;1099;104297;-79
2022/12/22 04:36:21;;;;;;;29.60;12.83;;;;;;;0.36;75.33;100677.13;123638;1099;104426;-78
2022/12/22 04:38:53;;;;;;;27.67;13.23;;;;;;;0.34;75.65;100674.43;123660;1099;104389;-79
2022/12/22 04:41:24;;;;;;;27.90;12.93;;;;;;;0.33;75.23;100671.73;123505;1099;104213;-79
2022/12/22 04:43:55;;;;;;;32.10;13.77;;;;;;;0.32;75.54;100668.22;123411;1099;104364;-79
2022/12/22 04:46:26;;;;;;;29.73;13.23;;;;;;;0.33;75.36;100675.20;123619;1099;104325;-79
2022/12/22 04:48:58;;;;;;;30.80;14.03;;;;;;;0.30;74.96;100674.06;123604;1099;104374;-79
2022/12/22 04:51:29;;;;;;;31.35;13.40;;;;;;;0.26;75.20;100672.89;123320;1099;104280;-79
2022/12/22 04:54:00;;;;;;;28.70;12.85;;;;;;;0.24;75.69;100679.62;123676;1099;104211;-79
2022/12/22 04:56:31;;;;;;;28.30;13.30;;;;;;;0.22;75.40;100670.87;123586;1099;104229;-77
2022/12/22 04:59:03;;;;;;;29.40;13.07;;;;;;;0.19;75.00;100673.21;123557;1099;105585;-78
2022/12/22 05:01:34;;;;;;;31.30;13.37;;;;;;;0.16;75.67;100672.97;123696;1099;104373;-78
2022/12/22 05:04:06;;;;;;;31.10;12.40;;;;;;;0.15;74.91;100674.63;123611;1099;104316;-78
2022/12/22 05:06:37;;;;;;;32.70;13.63;;;;;;;0.14;75.22;100672.84;123526;1099;104357;-78
2022/12/22 05:09:09;;;;;;;28.20;11.40;;;;;;;0.14;75.71;100678.00;123447;1099;104225;-78
2022/12/22 05:11:40;;;;;;;32.80;13.40;;;;;;;0.09;75.36;100671.55;123669;1099;104863;-78
2022/12/22 05:14:11;;;;;;;29.70;12.67;;;;;;;0.08;75.01;100677.52;123589;1099;104229;-78
2022/12/22 05:16:43;;;;;;;30.63;12.47;;;;;;;0.08;75.43;100669.77;123613;1099;104323;-77
2022/12/22 05:19:14;;;;;;;31.07;12.90;;;;;;;0.09;75.01;100678.41;123722;1099;104402;-77
2022/12/22 05:21:45;;;;;;;32.30;13.13;;;;;;;0.07;75.42;100677.39;123591;1098;104338;-78
2022/12/22 05:24:16;;;;;;;32.43;13.80;;;;;;;0.07;75.68;100674.81;123676;1099;104278;-78
2022/12/22 05:26:48;;;;;;;33.07;13.83;;;;;;;0.09;75.87;100671.55;123334;1099;104310;-78
2022/12/22 05:29:19;;;;;;;31.53;13.53;;;;;;;0.09;75.65;100668.97;123655;1099;104251;-78
2022/12/22 05:31:50;;;;;;;33.60;14.35;;;;;;;0.08;75.94;100676.59;123963;1099;104411;-79
2022/12/22 05:34:21;;;;;;;33.27;13.57;;;;;;;0.09;75.89;100678.41;123773;1099;104249;-77
2022/12/22 05:36:52;;;;;;;32.03;13.50;;;;;;;0.07;75.76;100679.97;123850;1099;104255;-78
2022/12/22 05:39:24;;;;;;;31.75;13.20;;;;;;;0.06;75.56;100678.16;123939;1099;104261;-77
2022/12/22 05:41:55;;;;;;;32.80;13.63;;;;;;;0.06;75.92;100684.20;124047;1099;107808;-77
2022/12/22 05:44:26;;;;;;;33.23;13.93;;;;;;;0.09;75.51;100689.61;124010;1099;104175;-78
2022/12/22 05:46:58;;;;;;;31.97;13.77;;;;;;;0.11;76.23;100692.31;123776;1099;104274;-78
2022/12/22 05:49:29;;;;;;;33.07;13.87;;;;;;;0.10;76.22;100688.84;123708;1099;104274;-78
2022/12/22 05:52:00;;;;;;;29.60;13.03;;;;;;;0.11;75.70;100689.73;124053;1099;104761;-78
2022/12/22 05:54:31;;;;;;;33.57;14.60;;;;;;;0.10;76.13;100681.11;124006;1099;104347;-77
2022/12/22 05:57:02;;;;;;;35.47;15.03;;;;;;;0.11;75.80;100682.00;123917;1099;104268;-77
2022/12/22 05:59:34;;;;;;;32.03;14.03;;;;;;;0.10;75.74;100680.22;124177;1099;104204;-78
2022/12/22 06:02:05;;;;;;;31.35;14.10;;;;;;;0.07;76.05;100678.28;124134;1099;104351;-78
2022/12/22 06:04:36;;;;;;;36.03;14.77;;;;;;;0.06;76.47;100680.73;124230;1099;104268;-77
2022/12/22 06:07:07;;;;;;;37.13;16.23;;;;;;;0.05;76.69;100677.27;124350;1099;104176;-81
2022/12/22 06:09:39;;;;;;;39.30;16.50;;;;;;;0.05;76.66;100676.34;124016;1099;104275;-77
2022/12/22 06:12:10;;;;;;;38.17;16.77;;;;;;;0.06;77.08;100679.05;123753;1099;104274;-77
2022/12/22 06:14:42;;;;;;;39.93;17.13;;;;;;;0.08;76.36;100685.25;124522;1099;104399;-78
2022/12/22 06:17:13;;;;;;;38.35;17.15;;;;;;;0.10;76.46;100693.12;124630;1099;104424;-78
2022/12/22 06:19:44;;;;;;;33.60;15.43;;;;;;;0.15;76.65;100692.69;124628;1099;104223;-77
2022/12/22 06:22:19;;;;;;;34.90;16.43;;;;;;;0.17;77.05;100692.81;125110;1099;104255;-76
2022/12/22 06:24:50;;;;;;;36.57;16.43;;;;;;;0.15;76.84;100690.11;124438;1099;104427;-79
2022/12/22 06:27:23;;;;;;;37.87;16.07;;;;;;;0.20;77.09;100692.17;124799;1098;104246;-78
2022/12/22 06:29:57;;;;;;;39.00;17.45;;;;;;;0.24;76.87;100695.11;124063;1099;104232;-77
2022/12/22 06:32:28;;;;;;;37.45;17.73;;;;;;;0.30;76.92;100689.55;124476;1099;104197;-76
2022/12/22 06:34:59;;;;;;;38.80;16.80;;;;;;;0.38;76.45;100692.74;124243;1099;104197;-76
2022/12/22 06:37:31;;;;;;;39.37;15.70;;;;;;;0.48;76.60;100692.67;124696;1098;104329;-77
2022/12/22 06:40:03;;;;;;;43.20;20.93;;;;;;;0.57;76.78;100697.67;124406;1099;104763;-77
2022/12/22 06:45:23;;;;;;;37.00;15.27;;;;;;;0.70;76.68;100695.25;124800;1099;104239;-76
2022/12/22 06:47:55;;;;;;;34.57;15.27;;;;;;;0.73;76.53;100705.82;124929;1099;104207;-76
2022/12/22 06:50:27;;;;;;;36.63;16.33;;;;;;;0.74;76.81;100704.16;124834;1099;104197;-76
2022/12/22 06:52:58;;;;;;;36.50;15.70;;;;;;;0.76;76.61;100703.48;124641;1099;104252;-77
2022/12/22 06:55:29;;;;;;;35.83;16.57;;;;;;;0.80;77.01;100707.22;124889;1099;102788;-77
2022/12/22 06:58:01;;;;;;;35.00;16.27;;;;;;;0.81;77.17;100704.76;124203;1099;104296;-76
2022/12/22 07:00:33;;;;;;;36.00;15.83;;;;;;;0.89;77.53;100705.36;124789;1099;104102;-78
2022/12/22 07:03:06;;;;;;;34.80;16.80;;;;;;;0.93;76.72;100703.90;124369;1099;104246;-78
2022/12/22 07:05:38;;;;;;;34.87;16.03;;;;;;;0.91;76.82;100708.95;124653;1098;104173;-79
2022/12/22 07:08:09;;;;;;;35.03;16.10;;;;;;;0.96;76.98;100707.61;125115;1098;104172;-79
2022/12/22 07:10:58;;;;;;;34.73;16.33;;;;;;;0.98;77.11;100711.23;125089;1099;102148;-77
2022/12/22 07:13:45;;;;;;;57.83;24.37;;;;;;;1.03;77.15;100711.59;124583;1099;103379;-78
2022/12/22 07:16:22;;;;;;;35.90;16.13;;;;;;;1.05;77.20;100713.48;125060;1099;102133;-77
2022/12/22 07:18:53;;;;;;;37.13;16.63;;;;;;;1.08;76.94;100713.72;125024;1099;102790;-77
2022/12/22 07:21:25;;;;;;;36.50;16.47;;;;;;;1.13;77.41;100710.61;124862;1099;104242;-78
2022/12/22 07:23:57;;;;;;;35.73;15.50;;;;;;;1.18;76.97;100709.27;125236;1099;108140;-79
2022/12/22 07:26:28;;;;;;;34.37;16.03;;;;;;;1.20;76.90;100697.34;125113;1099;104200;-77
2022/12/22 07:29:00;;;;;;;33.65;14.95;;;;;;;1.21;76.94;100691.41;125351;1099;102585;-78
2022/12/22 07:31:31;;;;;;;38.90;17.17;;;;;;;1.22;77.09;100695.80;125293;1099;104226;-79
2022/12/22 07:34:04;;;;;;;34.17;16.10;;;;;;;1.26;77.18;100697.81;125143;1099;102035;-78
2022/12/22 07:36:36;;;;;;;34.90;16.10;;;;;;;1.30;76.78;100698.97;125203;1098;102886;-77
2022/12/22 07:39:08;;;;;;;32.60;15.57;;;;;;;1.33;77.07;100694.92;125096;1099;104321;-78
2022/12/22 07:44:46;;;;;;;31.60;14.57;;;;;;;1.44;77.04;100706.96;124549;1102;104355;-78
2022/12/22 07:47:19;;;;;;;33.37;15.13;;;;;;;1.45;77.35;100710.47;124757;1102;104299;-77
2022/12/22 07:52:39;;;;;;;33.30;14.80;;;;;;;1.35;76.79;100710.55;125101;1099;102429;-79
2022/12/22 07:55:13;;;;;;;33.63;15.40;;;;;;;1.38;77.39;100714.25;125286;1099;111239;-78
2022/12/22 07:57:44;;;;;;;32.00;14.43;;;;;;;1.44;77.35;100709.55;125192;1099;103807;-79
2022/12/22 08:00:20;;;;;;;34.10;15.37;;;;;;;1.46;76.59;100711.36;124608;1100;104156;-76
2022/12/22 08:02:53;;;;;;;38.73;16.63;;;;;;;1.47;76.90;100718.34;125055;1099;102256;-75
2022/12/22 08:05:26;;;;;;;35.05;16.15;;;;;;;1.49;77.21;100716.77;124536;1099;104221;-77
2022/12/22 08:07:58;;;;;;;37.37;16.97;;;;;;;1.54;76.68;100716.34;124748;1099;103649;-77
2022/12/22 08:10:31;;;;;;;36.23;16.90;;;;;;;1.64;77.33;100722.17;125073;1099;104252;-76
2022/12/22 08:13:03;;;;;;;32.50;16.12;;;;;;;1.71;76.82;100725.33;124675;1099;104169;-76
2022/12/22 08:15:37;;;;;;;33.20;15.63;;;;;;;1.76;77.02;100711.07;124864;1099;104236;-77
2022/12/22 08:18:10;;;;;;;34.23;16.73;;;;;;;1.82;77.24;100710.60;125545;1099;102349;-76
2022/12/22 08:20:51;;;;;;;33.70;15.90;;;;;;;1.93;76.88;100712.32;125235;1099;102004;-76
2022/12/22 08:23:24;;;;;;;35.87;16.80;;;;;;;2.05;77.46;100714.88;124891;1099;102582;-76
2022/12/22 08:26:00;;;;;;;34.40;16.50;;;;;;;2.12;77.34;100713.63;125214;1099;117822;-76
2022/12/22 08:28:37;;;;;;;41.20;19.80;;;;;;;2.25;76.78;100705.09;125061;1099;102838;-77
2022/12/22 08:31:09;;;;;;;31.57;15.57;;;;;;;2.36;77.34;100703.27;125222;1098;104242;-76
2022/12/22 08:33:41;;;;;;;37.07;19.20;;;;;;;2.43;76.36;100705.49;125405;1099;104204;-76
2022/12/22 08:36:17;;;;;;;34.50;15.87;;;;;;;2.46;76.38;100696.27;124697;1099;104196;-75
2022/12/22 08:38:49;;;;;;;32.33;15.77;;;;;;;2.48;77.19;100697.27;125023;1099;104229;-77
2022/12/22 08:41:48;;;;;;;34.43;15.93;;;;;;;2.53;77.19;100694.12;125321;1099;103171;-78
2022/12/22 08:44:12;;;;;;;31.90;14.90;;;;;;;2.47;76.40;100697.16;124920;1099;104182;-78
2022/12/22 08:46:44;;;;;;;36.40;17.17;;;;;;;2.38;76.22;100697.39;124759;1099;103711;-77
2022/12/22 08:49:16;;;;;;;31.97;15.40;;;;;;;2.34;76.62;100706.64;125266;1099;104171;-76
2022/12/22 08:51:50;;;;;;;32.17;15.17;;;;;;;2.38;76.43;100701.69;125407;1099;104297;-77
2022/12/22 08:54:28;;;;;;;34.43;16.05;;;;;;;2.35;76.22;100689.41;125347;1099;103211;-76
2022/12/22 08:56:59;;;;;;;36.67;16.20;;;;;;;2.27;76.25;100687.97;124884;1099;102317;-80
2022/12/22 08:59:31;;;;;;;36.30;16.50;;;;;;;2.23;76.60;100684.27;125264;1099;102464;-77
2022/12/22 09:02:04;;;;;;;31.97;15.83;;;;;;;2.26;77.16;100686.16;125029;1100;104201;-77
2022/12/22 09:04:36;;;;;;;32.35;15.03;;;;;;;2.23;76.12;100680.75;125287;1099;104185;-76
2022/12/22 09:07:10;;;;;;;33.37;14.87;;;;;;;2.17;76.08;100689.00;125408;1099;102049;-78
2022/12/22 09:09:45;;;;;;;33.13;16.03;;;;;;;2.22;76.69;100684.16;126108;1099;102687;-77
2022/12/22 09:12:20;;;;;;;33.00;15.57;;;;;;;2.21;75.99;100675.47;126014;1099;102644;-77
2022/12/22 09:14:56;;;;;;;35.60;15.73;;;;;;;2.24;76.54;100677.39;126124;1098;101788;-77
2022/12/22 09:17:29;;;;;;;33.73;16.70;;;;;;;2.29;76.34;100671.76;126740;1099;101938;-77
2022/12/22 09:20:01;;;;;;;37.87;17.27;;;;;;;2.34;76.83;100664.31;126687;1098;102930;-78
2022/12/22 09:22:34;;;;;;;33.03;16.77;;;;;;;2.34;76.70;100666.91;126748;1099;102504;-79
2022/12/22 09:25:07;;;;;;;33.70;16.00;;;;;;;2.37;75.87;100664.54;126746;1097;101905;-77
2022/12/22 09:27:39;;;;;;;34.13;16.43;;;;;;;2.46;76.78;100666.86;126824;1099;101858;-79
2022/12/22 09:30:13;;;;;;;33.57;15.87;;;;;;;2.56;77.05;100665.84;126123;1099;102669;-78
2022/12/22 09:32:45;;;;;;;35.97;16.73;;;;;;;2.62;76.55;100656.80;126082;1099;101990;-76
2022/12/22 09:35:18;;;;;;;37.27;17.10;;;;;;;2.65;77.02;100658.68;126654;1098;102578;-76
2022/12/22 09:37:55;;;;;;;35.73;17.00;;;;;;;2.69;76.27;100658.11;126008;1099;102515;-77
2022/12/22 09:40:28;;;;;;;36.67;16.50;;;;;;;2.75;76.41;100657.66;125928;1099;102336;-77
2022/12/22 09:42:59;;;;;;;35.43;16.30;;;;;;;2.78;76.53;100660.45;125899;1099;102361;-77
2022/12/22 09:45:34;;;;;;;30.27;14.47;;;;;;;2.78;75.84;100647.50;126676;1098;101395;-77
2022/12/22 09:48:08;;;;;;;33.40;16.03;;;;;;;2.70;76.57;100654.74;126688;1098;102668;-77
2022/12/22 09:50:42;;;;;;;38.10;16.77;;;;;;;2.70;77.02;100644.37;126014;1099;102743;-76
2022/12/22 09:53:20;;;;;;;44.58;24.23;;;;;;;2.76;76.59;100641.29;126670;1098;102773;-78
2022/12/22 09:55:55;;;;;;;39.57;17.83;;;;;;;2.81;76.81;100646.01;126677;1098;102646;-77
2022/12/22 09:58:33;;;;;;;34.13;15.57;;;;;;;2.83;76.59;100644.41;125992;1099;102003;-77
2022/12/22 10:01:16;;;;;;;36.33;16.37;;;;;;;2.76;75.97;100633.52;126679;1098;101820;-77
2022/12/22 10:03:52;;;;;;;36.77;16.90;;;;;;;2.79;76.62;100633.73;126580;1099;101836;-77
2022/12/22 10:06:33;;;;;;;36.90;17.47;;;;;;;2.80;76.30;100625.17;126592;1099;102414;-77
2022/12/22 10:09:16;;;;;;;35.63;16.03;;;;;;;2.86;76.63;100633.37;126150;1099;104178;-76
2022/12/22 10:11:58;;;;;;;34.50;17.37;;;;;;;2.84;76.05;100622.00;126056;1099;102898;-76
2022/12/22 10:14:34;;;;;;;37.80;18.93;;;;;;;2.86;76.19;100617.81;126765;1099;102106;-77
2022/12/22 10:17:26;;;;;;;40.63;18.73;;;;;;;2.89;76.61;100620.61;126651;1098;102130;-78
2022/12/22 10:20:20;;;;;;;40.07;18.23;;;;;;;2.93;76.71;100621.72;126025;1098;102221;-77
2022/12/22 10:22:58;;;;;;;38.63;19.50;;;;;;;2.94;76.26;100607.97;126660;1099;102845;-79
2022/12/22 10:25:33;;;;;;;37.40;18.53;;;;;;;2.98;76.17;100603.09;126475;1099;102277;-77
2022/12/22 10:28:13;;;;;;;39.23;19.67;;;;;;;2.98;76.65;100597.91;126539;1098;102264;-78
2022/12/22 10:30:47;;;;;;;42.67;19.53;;;;;;;2.99;76.12;100591.95;126096;1098;101953;-77
2022/12/22 10:33:20;;;;;;;42.10;21.23;;;;;;;2.99;76.19;100591.02;126556;1099;102544;-76
2022/12/22 10:35:57;;;;;;;42.07;19.53;;;;;;;3.01;76.78;100584.27;126703;1099;104023;-79
2022/12/22 10:38:34;;;;;;;42.83;20.37;;;;;;;3.06;76.32;100581.17;126573;1098;109107;-78
2022/12/22 10:41:14;;;;;;;36.40;18.10;;;;;;;3.06;75.79;100578.58;126565;1099;102590;-76
2022/12/22 10:43:51;;;;;;;39.10;19.23;;;;;;;3.09;76.45;100583.08;126540;1099;101940;-76
2022/12/22 10:46:34;;;;;;;37.60;18.60;;;;;;;3.21;76.34;100577.80;126440;1099;101979;-77
2022/12/22 10:49:22;;;;;;;38.00;19.07;;;;;;;3.31;75.89;100579.33;126620;1099;118271;-76
2022/12/22 10:51:57;;;;;;;37.50;18.20;;;;;;;3.39;76.81;100579.01;126593;1098;101917;-77
2022/12/22 10:54:32;;;;;;;36.43;16.83;;;;;;;3.46;76.65;100566.44;126596;1099;102128;-76
2022/12/22 10:57:26;;;;;;;38.23;18.70;;;;;;;3.51;76.02;100563.36;126570;1098;102638;-78
2022/12/22 10:59:59;;;;;;;36.70;18.37;;;;;;;3.58;76.83;100562.97;126715;1098;102522;-75
2022/12/22 11:02:37;;;;;;;37.90;18.67;;;;;;;3.57;76.56;100568.95;126575;1098;102637;-77
2022/12/22 11:05:12;;;;;;;37.80;18.57;;;;;;;3.55;76.14;100569.63;126064;1099;102131;-77
2022/12/22 11:07:48;;;;;;;37.37;19.60;;;;;;;3.54;75.96;100562.67;126603;1098;102299;-77
2022/12/22 11:10:33;;;;;;;39.70;20.00;;;;;;;3.54;76.08;100557.48;125350;1099;102851;-76
2022/12/22 11:13:35;;;;;;;36.47;18.07;;;;;;;3.57;76.93;100553.38;125427;1099;104175;-76
2022/12/22 11:16:19;;;;;;;40.27;18.47;;;;;;;3.58;75.92;100552.59;125307;1099;103716;-77
2022/12/22 11:19:18;;;;;;;39.23;19.17;;;;;;;3.50;75.45;100553.77;125384;1099;104724;-78
2022/12/22 11:21:58;;;;;;;39.77;19.30;;;;;;;3.43;76.17;100543.81;125733;1099;104304;-79
2022/12/22 11:24:38;;;;;;;33.70;17.50;;;;;;;3.41;76.22;100542.79;125246;1099;102910;-79
2022/12/22 11:27:23;;;;;;;37.53;17.90;;;;;;;3.42;75.87;100536.81;125669;1099;104165;-78
2022/12/22 11:30:12;;;;;;;39.10;18.33;;;;;;;3.41;75.55;100538.52;125376;1099;118745;-78
2022/12/22 11:33:03;;;;;;;37.57;18.93;;;;;;;3.42;75.63;100537.70;125419;1099;102708;-77
2022/12/22 11:36:01;;;;;;;33.97;16.37;;;;;;;3.40;75.67;100534.12;124959;1099;104306;-79
2022/12/22 11:38:50;;;;;;;35.83;17.67;;;;;;;3.44;75.75;100536.92;125320;1099;101873;-78
2022/12/22 11:41:51;;;;;;;40.43;18.87;;;;;;;3.48;75.92;100532.03;125424;1099;101962;-77
2022/12/22 11:44:47;;;;;;;35.97;17.20;;;;;;;3.52;75.57;100523.66;125056;1099;104322;-76
2022/12/22 11:47:28;;;;;;;35.47;17.70;;;;;;;3.59;75.73;100522.34;125337;1099;103295;-76
2022/12/22 11:50:26;;;;;;;34.53;17.17;;;;;;;3.61;75.56;100515.53;125375;1099;103481;-77
2022/12/22 11:53:20;;;;;;;34.20;17.33;;;;;;;3.62;75.57;100513.86;125553;1098;104192;-78
2022/12/22 11:56:06;;;;;;;39.78;18.48;;;;;;;3.67;76.28;100517.64;125030;1099;104220;-77
2022/12/22 11:58:57;;;;;;;38.23;17.73;;;;;;;3.71;75.46;100522.20;125525;1099;104235;-76
2022/12/22 12:01:47;;;;;;;35.57;17.87;;;;;;;3.75;76.01;100512.11;125427;1099;102292;-77
2022/12/22 12:04:52;;;;;;;36.57;17.53;;;;;;;3.74;75.13;100510.34;125482;1099;104204;-77
2022/12/22 12:07:32;;;;;;;38.83;19.27;;;;;;;3.76;75.92;100508.73;125336;1099;103122;-77
2022/12/22 12:10:15;;;;;;;35.63;17.33;;;;;;;3.81;75.80;100509.02;125313;1099;102329;-77
2022/12/22 12:12:55;;;;;;;59.27;31.30;;;;;;;3.85;75.92;100498.03;124918;1099;103137;-79
2022/12/22 12:15:37;;;;;;;42.87;19.13;;;;;;;3.88;75.51;100507.69;126606;1097;102395;-77
2022/12/22 12:18:39;;;;;;;36.17;18.67;;;;;;;3.88;76.31;100498.23;126639;1099;102976;-77
2022/12/22 12:21:28;;;;;;;37.40;17.53;;;;;;;3.89;75.61;100499.11;126618;1098;113808;-77
2022/12/22 12:24:39;;;;;;;38.80;18.07;;;;;;;3.89;76.06;100500.00;126830;1099;102582;-78
2022/12/22 12:27:29;;;;;;;39.95;18.65;;;;;;;3.94;75.91;100501.20;126134;1099;102878;-77
2022/12/22 12:30:05;;;;;;;39.63;19.40;;;;;;;3.96;76.19;100507.38;126129;1098;102021;-77
2022/12/22 12:32:41;;;;;;;38.37;18.63;;;;;;;3.96;75.87;100499.59;126729;1098;102119;-82
2022/12/22 12:35:41;;;;;;;39.20;18.90;;;;;;;3.96;75.48;100501.30;126587;1097;101942;-78
2022/12/22 12:38:26;;;;;;;37.57;18.77;;;;;;;4.01;76.10;100492.09;126835;1098;102165;-78
2022/12/22 12:41:10;;;;;;;34.83;18.47;;;;;;;4.06;76.21;100498.45;126779;1098;101991;-77
2022/12/22 12:43:48;;;;;;;40.63;19.23;;;;;;;4.12;76.34;100490.16;126771;1098;102678;-77
2022/12/22 12:46:54;;;;;;;35.03;17.90;;;;;;;4.14;76.09;100488.53;125370;1099;104245;-79
2022/12/22 12:50:10;;;;;;;42.23;21.53;;;;;;;4.12;75.66;100487.55;125402;1099;104185;-79
2022/12/22 12:53:15;;;;;;;35.70;17.60;;;;;;;4.12;75.43;100490.16;124856;1099;102382;-76
2022/12/22 12:56:09;;;;;;;35.30;17.03;;;;;;;4.10;75.81;100492.66;124656;1102;104236;-76
2022/12/22 12:59:07;;;;;;;35.73;16.87;;;;;;;4.03;76.05;100493.07;125255;1099;104195;-76
2022/12/22 13:02:05;;;;;;;33.67;16.73;;;;;;;3.94;75.74;100495.09;125150;1099;103337;-75
2022/12/22 13:05:27;;;;;;;35.83;16.93;;;;;;;3.89;75.71;100500.00;124667;1099;102264;-76
2022/12/22 13:08:29;;;;;;;31.83;16.17;;;;;;;3.80;75.55;100491.63;125402;1099;103753;-77
2022/12/22 13:11:41;;;;;;;33.90;16.70;;;;;;;3.76;75.23;100481.89;125293;1099;104284;-76
2022/12/22 13:14:50;;;;;;;31.90;15.77;;;;;;;3.76;75.69;100487.08;125393;1099;102405;-75
2022/12/22 13:17:48;;;;;;;33.70;16.23;;;;;;;3.73;75.40;100497.27;125281;1099;101865;-78
2022/12/22 13:20:25;;;;;;;32.73;15.90;;;;;;;3.66;75.48;100497.66;125448;1098;104380;-76
2022/12/22 13:23:00;;;;;;;33.03;15.50;;;;;;;3.59;75.28;100492.09;126496;1098;102333;-77
2022/12/22 13:25:40;;;;;;;;;;;;;;;3.55;75.29;100500.50;126195;1099;102724;-77
2022/12/22 13:28:17;;;;;;;30.70;15.50;;;;;;;3.51;75.69;100498.50;126805;1098;102776;-79
2022/12/22 13:30:51;;;;;;;31.13;15.67;;;;;;;3.52;75.81;100499.38;126949;1098;102010;-77
2022/12/22 13:33:24;;;;;;;;;;;;;;;3.52;75.56;100501.98;126876;1098;111942;-77
2022/12/22 13:35:56;;;;;;;32.43;15.40;;;;;;;3.51;75.60;100495.02;126746;1099;102823;-77
2022/12/22 13:38:34;;;;;;;37.03;17.53;;;;;;;3.49;75.86;100497.52;124862;1099;104166;-77
2022/12/22 13:41:18;;;;;;;32.67;16.17;;;;;;;3.45;76.04;100484.25;124616;1100;104229;-77
2022/12/22 13:43:57;;;;;;;33.37;14.97;;;;;;;3.39;76.01;100480.44;124881;1099;102727;-76
2022/12/22 13:46:28;;;;;;;32.37;16.30;;;;;;;3.32;75.79;100477.35;124772;1099;104073;-76
2022/12/22 13:49:03;;;;;;;37.43;16.90;;;;;;;3.24;75.88;100475.18;124619;1099;101923;-76
2022/12/22 13:51:37;;;;;;;33.77;16.33;;;;;;;3.18;75.94;100469.59;125313;1099;104005;-78
2022/12/22 13:54:12;;;;;;;;;;;;;;;3.15;76.67;100479.77;125453;1099;107841;-77
2022/12/22 13:56:47;;;;;;;35.77;17.90;;;;;;;3.08;76.45;100477.56;125335;1099;102047;-79
2022/12/22 13:59:30;;;;;;;37.00;16.97;;;;;;;3.07;76.81;100486.16;125415;1099;104705;-77
2022/12/22 14:02:04;;;;;;;37.27;17.53;;;;;;;3.06;75.98;100480.05;125359;1099;104255;-77
2022/12/22 14:04:36;;;;;;;40.83;18.10;;;;;;;3.06;76.58;100485.23;125298;1099;117751;-78
2022/12/22 14:07:16;;;;;;;33.93;16.70;;;;;;;3.03;76.14;100482.45;125409;1099;104058;-77
2022/12/22 14:09:55;;;;;;;36.30;17.47;;;;;;;3.00;76.72;100482.25;125512;1099;102719;-77
2022/12/22 14:12:30;;;;;;;34.00;16.63;;;;;;;2.98;76.34;100480.38;125092;1099;107063;-76
2022/12/22 14:15:03;;;;;;;34.90;16.73;;;;;;;2.95;76.26;100480.17;125146;1099;104195;-78
2022/12/22 14:17:37;;;;;;;34.37;17.80;;;;;;;2.90;76.24;100486.72;125338;1098;104203;-77
2022/12/22 14:20:21;;;;;;;38.43;17.73;;;;;;;2.90;76.55;100484.13;125403;1099;103647;-75
2022/12/22 14:23:00;;;;;;;37.37;18.77;;;;;;;2.92;76.80;100482.56;125344;1099;102622;-78
2022/12/22 14:25:34;;;;;;;35.30;18.27;;;;;;;2.93;76.86;100498.22;125238;1099;102556;-76
2022/12/22 14:28:05;;;;;;;;;;;;;;;2.90;77.38;100491.91;125246;1099;104192;-76
2022/12/22 14:30:44;;;;;;;35.43;18.00;;;;;;;2.87;76.65;100497.80;125412;1099;104398;-79
2022/12/22 14:33:27;;;;;;;35.87;17.30;;;;;;;2.86;76.63;100506.37;125503;1099;104222;-76
2022/12/22 14:36:16;;;;;;;37.77;18.70;;;;;;;2.84;76.87;100501.08;124949;1098;102889;-77
2022/12/22 14:38:50;;;;;;;35.90;18.03;;;;;;;2.85;76.71;100504.56;125531;1099;103489;-76
2022/12/22 14:41:43;;;;;;;36.65;17.45;;;;;;;2.86;77.15;100503.78;125296;1099;102304;-78
2022/12/22 14:44:19;;;;;;;33.20;16.87;;;;;;;2.87;77.28;100501.28;125437;1098;102914;-77
2022/12/22 14:47:16;;;;;;;33.67;17.30;;;;;;;2.89;77.22;100493.61;125365;1099;102666;-76
2022/12/22 14:49:49;;;;;;;35.23;17.53;;;;;;;2.92;76.58;100492.93;125425;1099;102988;-76
2022/12/22 14:52:31;;;;;;;36.53;18.93;;;;;;;2.92;76.86;100488.63;125027;1099;101941;-76
2022/12/22 14:55:06;;;;;;;37.57;19.23;;;;;;;2.96;76.70;100489.72;125003;1099;102251;-76
2022/12/22 14:57:41;;;;;;;36.30;17.97;;;;;;;2.97;76.85;100487.23;125294;1099;103597;-77
2022/12/22 15:00:31;;;;;;;39.30;19.27;;;;;;;2.96;77.07;100488.05;125165;1098;104115;-76
2022/12/22 15:03:05;;;;;;;36.67;17.23;;;;;;;2.96;76.81;100482.87;126665;1098;102162;-75
2022/12/22 15:05:40;;;;;;;36.60;17.20;;;;;;;2.92;77.18;100475.67;126072;1099;111545;-75
2022/12/22 15:08:38;;;;;;;34.43;17.80;;;;;;;2.88;77.15;100473.66;126457;1099;102255;-75
2022/12/22 15:11:15;;;;;;;34.63;17.80;;;;;;;2.82;76.57;100471.59;126548;1099;102254;-75
2022/12/22 15:13:49;;;;;;;37.77;18.87;;;;;;;2.77;76.69;100470.36;126587;1099;103217;-76
2022/12/22 15:16:23;;;;;;;34.40;17.77;;;;;;;2.77;77.27;100466.88;126535;1099;101836;-76
2022/12/22 15:18:55;;;;;;;34.58;17.55;;;;;;;2.78;77.53;100466.09;126605;1099;102747;-75
2022/12/22 15:21:27;;;;;;;34.20;17.43;;;;;;;2.77;77.05;100466.88;126575;1099;101998;-77
2022/12/22 15:24:02;;;;;;;34.27;17.27;;;;;;;2.77;77.41;100460.00;126654;1099;102583;-76
2022/12/22 15:26:34;;;;;;;36.60;18.47;;;;;;;2.76;77.90;100447.86;126783;1099;102019;-75
2022/12/22 15:29:10;;;;;;;38.60;18.48;;;;;;;2.76;77.53;100457.30;126762;1099;101388;-76
2022/12/22 15:31:44;;;;;;;35.80;17.40;;;;;;;2.71;77.82;100446.63;126873;1099;101884;-75